Avilla, MO

11:41 PM CDT on July 24, 2014 (GMT -0500)
RAWS MT VERNON MO US (MMVVM7) Elev 1266 ft | 37.19 °N, 93.93 °W | Change Station
Active Advisory: Heat Advisory Active Notice: Public Information Statement

Current weather conditions updated 41 minutes ago

Clear
Clear
70 °F
Feels Like 70 °F
N
6
Wind Variable Wind from ESE
Gusts 8.0 mph

Tomorrow is forecast to be Much Warmer than today.

Today
High -- | Low -- °F
--% Chance of Precip.
Yesterday
High -- | Low -- °F
Precip. -- in
6:14 AM 8:30 PM
Waning Crescent, 3% visible
Pressure 30.00 in
Visibility 10.0 miles
Clouds Clear
Dew Point 60 °F
Humidity 71%
Rainfall 0.00 in
Snow Depth Not available.
UV 0 out of 12
Pollen 5.40 out of 12
Air Quality Not available.
Flu Activity Not available.
METAR KJLN 250353Z AUTO 14005KT 10SM CLR 24/18 A3003 RMK AO2 SLP159 T02390178

More Conditions Fewer Conditions

Pressure 30.00 in
Visibility 10.0 miles
Clouds Clear
Dew Point 60 °F
Humidity 71%
Rainfall 0.00 in
Snow Depth Not available.
UV 0 out of 12
Pollen 5.40 out of 12
Air Quality Not available.
Flu Activity Not available.
METAR KJLN 250353Z AUTO 14005KT 10SM CLR 24/18 A3003 RMK AO2 SLP159 T02390178

More Conditions Fewer Conditions

10-Day Weather Forecast

Almanac

Astronomy

Jul. 24, 2014 Rise Set
Actual Time 6:14 AM CDT 8:30 PM CDT
Civil Twilight 5:45 AM CDT 9:00 PM CDT
Nautical Twilight 5:09 AM CDT 9:36 PM CDT
Astronomical Twilight 4:29 AM CDT 10:15 PM CDT
Moon 4:22 AM CDT (7/24) 6:47 PM CDT (7/24)
Length of Visible Light 15h 14m
Length of Day
14h 15m
Tomorrow will be 1m 34s shorter.
Waning Crescent, 3% of the Moon is Illuminated
Jul 25
Waning Crescent
Jul 26
New
Aug 3
First Quarter
Aug 10
Full
Aug 17
Last Quarter

Yesterday's Extremes

State Highs State Lows

Community

WunderPhotos

Upload Photos

1,737,244 photos uploaded!

Nearby

Snow Depth

Station Depth Elevation
No new snow has been reported.

Earthquake Activity

City Distance Mag. Time & Date
No recent earthquake activity has been reported nearby.
Minimum magnitude displayed is 2.5.

Coastal Water Temperatures

Place Temperature
No Stations Reporting

Nearby Weather Stations

Station Location Temp. Heat Index Dew Point Humidity Wind Precip. Elev Updated Type
RAWS MT VERNON MO, La Russell, MO 70 °F - 60 °F 71% ESE  at  6 mph 0.00 in / hr 1266 ft 11:00 PM CDT MADIS
MesoWest MT VERNON , Freistatt, MO 71 °F 72 °F 64 °F 77% SE  at  0 mph 0.00 in / hr 1149 ft 10:00 PM CDT MADIS
Monett, MO 71.2 °F 74 °F 61 °F 69% ENE  at  4.1 mph 0.00 in / hr 1306 ft 11:41 PM CDT Normal
South east of Granby, Granby, MO 71.8 °F 76 °F 58 °F 63% ENE  at  0.0 mph 0.00 in / hr 1217 ft 11:41 PM CDT Rapid Fire
Greenfield West (WOHSN), Greenfield, MO 70.5 °F 74 °F 61 °F 71% ESE  at  2.2 mph - / hr 1066 ft 11:36 PM CDT Normal
Mohaska, Joplin, MO 76.1 °F 78 °F 64 °F 66% SSE  at  1.0 mph 0.00 in / hr 1010 ft 11:30 PM CDT Normal
APRSWXNET Joplin MO, Joplin, MO 72 °F 71 °F 68 °F 86% East  at  0 mph 0.00 in / hr 940 ft 10:41 PM CDT MADIS

Show More Stations Show Fewer Stations